RYR5225 EINN-EGGP
Flight info
| Callsign | RYR5225 |
|---|---|
| Flight time | 0h 46m |
| Altitude | 27000 |
| Route | AGINI3A AGINI DCT BOFUM |
| Aircraft | B738/M-SDE3FGILRWY/SB1 |
Departure
| Time | 2026-05-06 05:04 |
|---|---|
| Airport | Shannon Airport (EINN) |
Arrival
| Time | 2026-05-06 05:50 |
|---|---|
| Airport | Liverpool John Lennon Airport (EGGP) |
| Time | Latitude | Longitude | Altitude | Speed | Heading |
|---|---|---|---|---|---|
| 2026-05-06 05:00 | 52.69479 | -8.92090 | 21 ft | 1 kts | 283° |
| 2026-05-06 05:01 | 52.69481 | -8.92105 | 21 ft | 2 kts | 283° |
| 2026-05-06 05:01 | 52.69491 | -8.92157 | 23 ft | 7 kts | 289° |
| 2026-05-06 05:01 | 52.69513 | -8.92255 | 21 ft | 11 kts | 294° |
| 2026-05-06 05:01 | 52.69559 | -8.92374 | 21 ft | 14 kts | 310° |
| 2026-05-06 05:02 | 52.69634 | -8.92496 | 21 ft | 16 kts | 315° |
| 2026-05-06 05:02 | 52.69712 | -8.92623 | 22 ft | 15 kts | 315° |
| 2026-05-06 05:02 | 52.69787 | -8.92745 | 22 ft | 15 kts | 315° |
| 2026-05-06 05:02 | 52.69859 | -8.92862 | 28 ft | 14 kts | 315° |
| 2026-05-06 05:03 | 52.69929 | -8.92971 | 37 ft | 14 kts | 329° |
| 2026-05-06 05:03 | 52.70005 | -8.92901 | 36 ft | 15 kts | 52° |
| 2026-05-06 05:03 | 52.70142 | -8.92609 | 30 ft | 70 kts | 52° |
| 2026-05-06 05:03 | 52.70617 | -8.91604 | 29 ft | 152 kts | 51° |
| 2026-05-06 05:04 | 52.71329 | -8.90082 | 753 ft | 168 kts | 52° |
| 2026-05-06 05:04 | 52.72134 | -8.88739 | 1922 ft | 174 kts | 27° |
| 2026-05-06 05:04 | 52.73328 | -8.87995 | 2589 ft | 195 kts | 19° |
| 2026-05-06 05:04 | 52.74688 | -8.87153 | 2869 ft | 223 kts | 20° |
| 2026-05-06 05:05 | 52.76225 | -8.86164 | 3195 ft | 246 kts | 20° |
| 2026-05-06 05:05 | 52.77847 | -8.85085 | 3929 ft | 255 kts | 21° |
| 2026-05-06 05:05 | 52.79480 | -8.83973 | 4925 ft | 257 kts | 21° |
| 2026-05-06 05:05 | 52.81141 | -8.82822 | 5927 ft | 260 kts | 21° |
| 2026-05-06 05:06 | 52.82824 | -8.81642 | 6828 ft | 266 kts | 21° |
| 2026-05-06 05:06 | 52.84540 | -8.80427 | 7692 ft | 271 kts | 21° |
| 2026-05-06 05:06 | 52.86290 | -8.79180 | 8565 ft | 276 kts | 22° |
| 2026-05-06 05:06 | 52.88074 | -8.77902 | 9426 ft | 282 kts | 22° |
| 2026-05-06 05:07 | 52.89891 | -8.76595 | 10270 ft | 287 kts | 22° |
| 2026-05-06 05:07 | 52.91717 | -8.75278 | 11083 ft | 291 kts | 22° |
| 2026-05-06 05:07 | 52.93587 | -8.73927 | 11927 ft | 295 kts | 22° |
| 2026-05-06 05:07 | 52.95485 | -8.72553 | 12741 ft | 299 kts | 21° |
| 2026-05-06 05:08 | 52.97415 | -8.71155 | 13568 ft | 304 kts | 21° |
| 2026-05-06 05:08 | 52.99363 | -8.69742 | 14335 ft | 308 kts | 21° |
| 2026-05-06 05:08 | 53.01341 | -8.68305 | 15115 ft | 311 kts | 21° |
| 2026-05-06 05:08 | 53.03313 | -8.66870 | 15892 ft | 313 kts | 21° |
| 2026-05-06 05:09 | 53.05323 | -8.65407 | 16666 ft | 316 kts | 21° |
| 2026-05-06 05:09 | 53.07353 | -8.63928 | 17461 ft | 319 kts | 21° |
| 2026-05-06 05:09 | 53.09377 | -8.62452 | 18216 ft | 323 kts | 21° |
| 2026-05-06 05:09 | 53.11453 | -8.60937 | 18886 ft | 327 kts | 21° |
| 2026-05-06 05:10 | 53.13541 | -8.59361 | 19538 ft | 332 kts | 26° |
| 2026-05-06 05:10 | 53.15303 | -8.56832 | 20140 ft | 343 kts | 52° |
| 2026-05-06 05:10 | 53.16332 | -8.53233 | 20793 ft | 349 kts | 73° |
| 2026-05-06 05:10 | 53.16925 | -8.49290 | 21440 ft | 353 kts | 76° |
| 2026-05-06 05:11 | 53.17460 | -8.45267 | 22032 ft | 358 kts | 77° |
| 2026-05-06 05:11 | 53.17985 | -8.41171 | 22640 ft | 362 kts | 77° |
| 2026-05-06 05:11 | 53.18510 | -8.37085 | 23238 ft | 366 kts | 77° |
| 2026-05-06 05:11 | 53.19051 | -8.32916 | 23825 ft | 370 kts | 76° |
| 2026-05-06 05:12 | 53.19605 | -8.28697 | 24341 ft | 373 kts | 76° |
| 2026-05-06 05:12 | 53.20168 | -8.24451 | 24867 ft | 376 kts | 76° |
| 2026-05-06 05:12 | 53.20736 | -8.20185 | 25380 ft | 379 kts | 76° |
| 2026-05-06 05:12 | 53.21311 | -8.15874 | 25883 ft | 382 kts | 76° |
| 2026-05-06 05:13 | 53.21893 | -8.11513 | 26376 ft | 385 kts | 76° |
| 2026-05-06 05:13 | 53.22474 | -8.07152 | 26990 ft | 384 kts | 76° |
| 2026-05-06 05:13 | 53.23048 | -8.02828 | 27039 ft | 389 kts | 76° |
| 2026-05-06 05:13 | 53.23633 | -7.98418 | 27066 ft | 385 kts | 76° |
| 2026-05-06 05:14 | 53.24207 | -7.94067 | 27058 ft | 382 kts | 76° |
| 2026-05-06 05:14 | 53.24776 | -7.89745 | 27065 ft | 381 kts | 76° |
| 2026-05-06 05:14 | 53.25346 | -7.85408 | 27079 ft | 382 kts | 76° |
| 2026-05-06 05:14 | 53.25908 | -7.81116 | 27071 ft | 383 kts | 77° |
| 2026-05-06 05:15 | 53.26476 | -7.76766 | 27067 ft | 384 kts | 77° |
| 2026-05-06 05:15 | 53.27044 | -7.72404 | 27068 ft | 384 kts | 77° |
| 2026-05-06 05:15 | 53.27613 | -7.68018 | 27071 ft | 385 kts | 77° |
| 2026-05-06 05:15 | 53.28178 | -7.63647 | 27066 ft | 385 kts | 77° |
| 2026-05-06 05:16 | 53.28745 | -7.59246 | 27065 ft | 387 kts | 77° |
| 2026-05-06 05:16 | 53.29313 | -7.54839 | 27079 ft | 397 kts | 77° |
| 2026-05-06 05:16 | 53.29898 | -7.50278 | 27076 ft | 405 kts | 77° |
| 2026-05-06 05:16 | 53.30486 | -7.45669 | 27063 ft | 404 kts | 77° |
| 2026-05-06 05:17 | 53.31070 | -7.41077 | 27048 ft | 402 kts | 77° |
| 2026-05-06 05:17 | 53.31650 | -7.36504 | 27046 ft | 401 kts | 77° |
| 2026-05-06 05:17 | 53.32226 | -7.31947 | 27050 ft | 399 kts | 77° |
| 2026-05-06 05:17 | 53.32792 | -7.27452 | 27053 ft | 398 kts | 77° |
| 2026-05-06 05:18 | 53.33362 | -7.22916 | 27049 ft | 397 kts | 77° |
| 2026-05-06 05:18 | 53.33929 | -7.18389 | 27050 ft | 397 kts | 77° |
| 2026-05-06 05:18 | 53.34494 | -7.13864 | 27053 ft | 397 kts | 77° |
| 2026-05-06 05:18 | 53.35057 | -7.09337 | 27056 ft | 397 kts | 77° |
| 2026-05-06 05:19 | 53.35620 | -7.04797 | 27057 ft | 398 kts | 77° |
| 2026-05-06 05:19 | 53.36175 | -7.00306 | 27059 ft | 398 kts | 77° |
| 2026-05-06 05:19 | 53.36735 | -6.95754 | 27056 ft | 399 kts | 77° |
| 2026-05-06 05:19 | 53.37295 | -6.91195 | 27053 ft | 400 kts | 77° |
| 2026-05-06 05:20 | 53.37854 | -6.86626 | 27053 ft | 401 kts | 77° |
| 2026-05-06 05:20 | 53.38412 | -6.82047 | 27052 ft | 401 kts | 77° |
| 2026-05-06 05:20 | 53.38970 | -6.77455 | 27053 ft | 401 kts | 77° |
| 2026-05-06 05:20 | 53.39526 | -6.72865 | 27053 ft | 402 kts | 77° |
| 2026-05-06 05:21 | 53.40080 | -6.68274 | 27049 ft | 402 kts | 77° |
| 2026-05-06 05:21 | 53.40631 | -6.63692 | 27050 ft | 401 kts | 78° |
| 2026-05-06 05:21 | 53.41174 | -6.59165 | 27043 ft | 401 kts | 78° |
| 2026-05-06 05:21 | 53.41724 | -6.54558 | 27047 ft | 400 kts | 78° |
| 2026-05-06 05:22 | 53.42267 | -6.49995 | 27049 ft | 400 kts | 78° |
| 2026-05-06 05:22 | 53.42809 | -6.45429 | 27048 ft | 400 kts | 78° |
| 2026-05-06 05:22 | 53.43350 | -6.40851 | 27047 ft | 399 kts | 78° |
| 2026-05-06 05:22 | 53.43887 | -6.36289 | 27041 ft | 399 kts | 78° |
| 2026-05-06 05:23 | 53.44425 | -6.31706 | 27041 ft | 399 kts | 78° |
| 2026-05-06 05:23 | 53.44953 | -6.27191 | 27040 ft | 398 kts | 78° |
| 2026-05-06 05:23 | 53.46016 | -6.18053 | 27044 ft | 398 kts | 78° |
| 2026-05-06 05:24 | 53.46546 | -6.13480 | 27039 ft | 399 kts | 78° |
| 2026-05-06 05:24 | 53.47072 | -6.08921 | 27038 ft | 399 kts | 78° |
| 2026-05-06 05:24 | 53.47421 | -6.05879 | 27039 ft | 399 kts | 78° |
| 2026-05-06 05:24 | 53.47945 | -6.01309 | 27038 ft | 399 kts | 78° |
| 2026-05-06 05:25 | 53.48469 | -5.96721 | 27038 ft | 399 kts | 78° |
| 2026-05-06 05:25 | 53.49160 | -5.90646 | 27035 ft | 400 kts | 78° |
| 2026-05-06 05:25 | 53.49508 | -5.87582 | 27034 ft | 400 kts | 78° |
| 2026-05-06 05:25 | 53.50021 | -5.83037 | 26988 ft | 393 kts | 78° |
| 2026-05-06 05:26 | 53.50527 | -5.78545 | 26713 ft | 388 kts | 78° |
| 2026-05-06 05:26 | 53.51025 | -5.74102 | 26420 ft | 385 kts | 78° |
| 2026-05-06 05:26 | 53.51518 | -5.69693 | 26072 ft | 382 kts | 78° |
| 2026-05-06 05:26 | 53.52006 | -5.65318 | 25742 ft | 379 kts | 78° |
| 2026-05-06 05:27 | 53.52491 | -5.60958 | 25407 ft | 377 kts | 78° |
| 2026-05-06 05:27 | 53.52965 | -5.56685 | 25074 ft | 375 kts | 78° |
| 2026-05-06 05:27 | 53.53438 | -5.52390 | 24737 ft | 373 kts | 78° |
| 2026-05-06 05:27 | 53.53780 | -5.48082 | 24402 ft | 371 kts | 89° |
| 2026-05-06 05:28 | 53.53706 | -5.43754 | 24128 ft | 368 kts | 93° |
| 2026-05-06 05:28 | 53.53549 | -5.39464 | 23793 ft | 366 kts | 93° |
| 2026-05-06 05:28 | 53.53394 | -5.35189 | 23442 ft | 365 kts | 93° |
| 2026-05-06 05:28 | 53.53261 | -5.30987 | 23057 ft | 363 kts | 92° |
| 2026-05-06 05:29 | 53.53145 | -5.26752 | 22704 ft | 361 kts | 92° |
| 2026-05-06 05:29 | 53.53039 | -5.22549 | 22371 ft | 358 kts | 92° |
| 2026-05-06 05:29 | 53.52934 | -5.18388 | 22048 ft | 355 kts | 92° |
| 2026-05-06 05:29 | 53.52826 | -5.14252 | 21723 ft | 352 kts | 92° |
| 2026-05-06 05:30 | 53.52702 | -5.10150 | 21422 ft | 349 kts | 92° |
| 2026-05-06 05:30 | 53.52574 | -5.06140 | 21104 ft | 347 kts | 92° |
| 2026-05-06 05:30 | 53.52443 | -5.02086 | 20785 ft | 345 kts | 92° |
| 2026-05-06 05:30 | 53.52313 | -4.98057 | 20474 ft | 343 kts | 92° |
| 2026-05-06 05:31 | 53.52185 | -4.94068 | 20145 ft | 342 kts | 92° |
| 2026-05-06 05:31 | 53.52055 | -4.90071 | 19833 ft | 340 kts | 92° |
| 2026-05-06 05:31 | 53.51925 | -4.86109 | 19512 ft | 339 kts | 92° |
| 2026-05-06 05:31 | 53.51795 | -4.82166 | 19204 ft | 337 kts | 92° |
| 2026-05-06 05:32 | 53.51663 | -4.78235 | 18902 ft | 335 kts | 92° |
| 2026-05-06 05:32 | 53.51534 | -4.74381 | 18599 ft | 334 kts | 92° |
| 2026-05-06 05:32 | 53.51402 | -4.70483 | 18272 ft | 333 kts | 92° |
| 2026-05-06 05:32 | 53.51269 | -4.66587 | 17925 ft | 332 kts | 92° |
| 2026-05-06 05:33 | 53.51135 | -4.62715 | 17590 ft | 330 kts | 92° |
| 2026-05-06 05:33 | 53.51003 | -4.58918 | 17278 ft | 329 kts | 92° |
| 2026-05-06 05:33 | 53.50869 | -4.55087 | 16947 ft | 327 kts | 92° |
| 2026-05-06 05:33 | 53.50734 | -4.51262 | 16636 ft | 325 kts | 92° |
| 2026-05-06 05:34 | 53.50599 | -4.47484 | 16331 ft | 323 kts | 92° |
| 2026-05-06 05:34 | 53.50463 | -4.43719 | 16018 ft | 321 kts | 92° |
| 2026-05-06 05:34 | 53.50329 | -4.40022 | 15716 ft | 320 kts | 92° |
| 2026-05-06 05:34 | 53.50192 | -4.36293 | 15409 ft | 318 kts | 92° |
| 2026-05-06 05:35 | 53.50055 | -4.32581 | 15117 ft | 317 kts | 92° |
| 2026-05-06 05:35 | 53.49918 | -4.28890 | 14804 ft | 316 kts | 92° |
| 2026-05-06 05:35 | 53.49779 | -4.25205 | 14501 ft | 315 kts | 92° |
| 2026-05-06 05:35 | 53.49640 | -4.21540 | 14194 ft | 314 kts | 92° |
| 2026-05-06 05:36 | 53.49503 | -4.17925 | 13895 ft | 313 kts | 92° |
| 2026-05-06 05:36 | 53.49362 | -4.14273 | 13551 ft | 312 kts | 92° |
| 2026-05-06 05:36 | 53.49221 | -4.10631 | 13223 ft | 311 kts | 92° |
| 2026-05-06 05:36 | 53.49081 | -4.07015 | 12923 ft | 310 kts | 92° |
| 2026-05-06 05:37 | 53.48939 | -4.03402 | 12613 ft | 308 kts | 92° |
| 2026-05-06 05:37 | 53.48797 | -3.99847 | 12316 ft | 306 kts | 92° |
| 2026-05-06 05:37 | 53.48640 | -3.96289 | 12005 ft | 305 kts | 96° |
| 2026-05-06 05:37 | 53.48138 | -3.92832 | 11727 ft | 303 kts | 107° |
| 2026-05-06 05:38 | 53.47431 | -3.89501 | 11446 ft | 302 kts | 110° |
| 2026-05-06 05:38 | 53.46695 | -3.86195 | 11144 ft | 301 kts | 109° |
| 2026-05-06 05:38 | 53.45982 | -3.82954 | 10854 ft | 300 kts | 109° |
| 2026-05-06 05:38 | 53.45275 | -3.79668 | 10558 ft | 299 kts | 109° |
| 2026-05-06 05:39 | 53.44580 | -3.76385 | 10257 ft | 298 kts | 108° |
| 2026-05-06 05:39 | 53.43901 | -3.73138 | 10107 ft | 291 kts | 108° |
| 2026-05-06 05:39 | 53.43237 | -3.69949 | 9853 ft | 289 kts | 108° |
| 2026-05-06 05:39 | 53.42573 | -3.66764 | 9552 ft | 288 kts | 108° |
| 2026-05-06 05:40 | 53.41913 | -3.63602 | 9263 ft | 286 kts | 108° |
| 2026-05-06 05:40 | 53.41390 | -3.60400 | 8956 ft | 283 kts | 91° |
| 2026-05-06 05:40 | 53.41542 | -3.57158 | 8744 ft | 277 kts | 81° |
| 2026-05-06 05:40 | 53.41783 | -3.53983 | 8449 ft | 276 kts | 81° |
| 2026-05-06 05:41 | 53.42021 | -3.50753 | 8174 ft | 274 kts | 81° |
| 2026-05-06 05:41 | 53.42246 | -3.47632 | 7910 ft | 273 kts | 81° |
| 2026-05-06 05:41 | 53.42469 | -3.44473 | 7640 ft | 271 kts | 82° |
| 2026-05-06 05:41 | 53.42686 | -3.41362 | 7500 ft | 265 kts | 82° |
| 2026-05-06 05:42 | 53.42893 | -3.38329 | 7373 ft | 258 kts | 81° |
| 2026-05-06 05:42 | 53.43094 | -3.35381 | 7259 ft | 251 kts | 82° |
| 2026-05-06 05:42 | 53.43288 | -3.32509 | 7146 ft | 244 kts | 82° |
| 2026-05-06 05:42 | 53.43360 | -3.29712 | 7049 ft | 239 kts | 99° |
| 2026-05-06 05:43 | 53.42688 | -3.27218 | 6876 ft | 237 kts | 131° |
| 2026-05-06 05:43 | 53.41368 | -3.25761 | 6809 ft | 227 kts | 165° |
| 2026-05-06 05:43 | 53.39841 | -3.25589 | 6710 ft | 214 kts | 185° |
| 2026-05-06 05:43 | 53.38399 | -3.25793 | 6618 ft | 202 kts | 186° |
| 2026-05-06 05:44 | 53.37020 | -3.26029 | 6362 ft | 196 kts | 186° |
| 2026-05-06 05:44 | 53.35658 | -3.26273 | 5959 ft | 197 kts | 186° |
| 2026-05-06 05:44 | 53.34316 | -3.26497 | 5593 ft | 195 kts | 180° |
| 2026-05-06 05:44 | 53.33041 | -3.25835 | 5127 ft | 195 kts | 140° |
| 2026-05-06 05:45 | 53.32110 | -3.24228 | 4777 ft | 191 kts | 130° |
| 2026-05-06 05:45 | 53.31500 | -3.22278 | 4382 ft | 189 kts | 92° |
| 2026-05-06 05:45 | 53.31719 | -3.20205 | 4150 ft | 181 kts | 76° |
| 2026-05-06 05:45 | 53.31896 | -3.18090 | 3889 ft | 181 kts | 84° |
| 2026-05-06 05:46 | 53.31992 | -3.15974 | 3634 ft | 182 kts | 85° |
| 2026-05-06 05:46 | 53.32080 | -3.13895 | 3382 ft | 180 kts | 85° |
| 2026-05-06 05:46 | 53.32168 | -3.11825 | 3136 ft | 176 kts | 85° |
| 2026-05-06 05:46 | 53.32256 | -3.09790 | 2882 ft | 173 kts | 86° |
| 2026-05-06 05:47 | 53.32343 | -3.07807 | 2649 ft | 169 kts | 86° |
| 2026-05-06 05:47 | 53.32427 | -3.05867 | 2422 ft | 166 kts | 86° |
| 2026-05-06 05:47 | 53.32510 | -3.03985 | 2192 ft | 162 kts | 86° |
| 2026-05-06 05:47 | 53.32592 | -3.02122 | 1969 ft | 159 kts | 86° |
| 2026-05-06 05:48 | 53.32673 | -3.00279 | 1758 ft | 154 kts | 85° |
| 2026-05-06 05:48 | 53.32750 | -2.98542 | 1530 ft | 149 kts | 85° |
| 2026-05-06 05:48 | 53.32827 | -2.96830 | 1333 ft | 147 kts | 85° |
| 2026-05-06 05:48 | 53.32902 | -2.95159 | 1161 ft | 139 kts | 85° |
| 2026-05-06 05:49 | 53.32974 | -2.93546 | 929 ft | 139 kts | 85° |
| 2026-05-06 05:49 | 53.33046 | -2.91935 | 764 ft | 139 kts | 85° |
| 2026-05-06 05:49 | 53.33115 | -2.90287 | 552 ft | 142 kts | 85° |
| 2026-05-06 05:49 | 53.33188 | -2.88657 | 332 ft | 141 kts | 84° |
| 2026-05-06 05:50 | 53.33269 | -2.87008 | 154 ft | 144 kts | 84° |
| 2026-05-06 05:50 | 53.33347 | -2.85404 | 91 ft | 124 kts | 85° |
| 2026-05-06 05:50 | 53.33394 | -2.84325 | 88 ft | 62 kts | 85° |
| 2026-05-06 05:50 | 53.33417 | -2.83808 | 89 ft | 24 kts | 85° |
| 2026-05-06 05:51 | 53.33446 | -2.83629 | 92 ft | 13 kts | 19° |
| 2026-05-06 05:51 | 53.33534 | -2.83629 | 90 ft | 12 kts | 358° |
| 2026-05-06 05:51 | 53.33585 | -2.83719 | 90 ft | 12 kts | 269° |
| 2026-05-06 05:51 | 53.33580 | -2.83859 | 88 ft | 12 kts | 266° |
| 2026-05-06 05:52 | 53.33572 | -2.84026 | 90 ft | 17 kts | 265° |
| 2026-05-06 05:52 | 53.33563 | -2.84233 | 88 ft | 18 kts | 265° |
| 2026-05-06 05:52 | 53.33553 | -2.84440 | 88 ft | 18 kts | 265° |
| 2026-05-06 05:52 | 53.33542 | -2.84665 | 88 ft | 20 kts | 265° |
| 2026-05-06 05:53 | 53.33531 | -2.84894 | 89 ft | 19 kts | 265° |
| 2026-05-06 05:53 | 53.33521 | -2.85117 | 89 ft | 19 kts | 265° |
| 2026-05-06 05:53 | 53.33511 | -2.85331 | 88 ft | 18 kts | 265° |
| 2026-05-06 05:53 | 53.33519 | -2.85498 | 89 ft | 13 kts | 323° |
| 2026-05-06 05:54 | 53.33590 | -2.85513 | 92 ft | 7 kts | 352° |
| 2026-05-06 05:54 | 53.33608 | -2.85581 | 90 ft | 7 kts | 268° |
| 2026-05-06 05:54 | 53.33623 | -2.85648 | 89 ft | 7 kts | 338° |
| 2026-05-06 05:54 | 53.33640 | -2.85652 | 89 ft | 0 kts | 354° |
| 2026-05-06 05:55 | 53.33646 | -2.85653 | 88 ft | 1 kts | 354° |
| 2026-05-06 05:55 | 53.33652 | -2.85653 | 88 ft | 0 kts | 354° |